createdAt,value
2022-12-04T00:00:14.700Z,99677.20
2022-12-04T00:02:41.320Z,99680.40
2022-12-04T00:05:10.117Z,99678.20
2022-12-04T00:07:36.673Z,99676.80
2022-12-04T00:10:04.315Z,99674.40
2022-12-04T00:12:30.808Z,99673.60
2022-12-04T00:17:48.539Z,99681.00
2022-12-04T00:20:15.452Z,99686.80
2022-12-04T00:22:41.869Z,99688.80
2022-12-04T00:25:08.419Z,99691.00
2022-12-04T00:27:34.798Z,99691.00
2022-12-04T00:30:01.232Z,99692.40
2022-12-04T00:32:27.578Z,99690.20
2022-12-04T00:34:54.022Z,99684.80
2022-12-04T00:37:20.445Z,99686.60
2022-12-04T00:39:46.851Z,99690.60
2022-12-04T00:42:13.304Z,99693.20
2022-12-04T00:44:39.658Z,99696.40
2022-12-04T00:47:06.103Z,99706.40
2022-12-04T00:49:32.512Z,99707.80
2022-12-04T00:51:58.894Z,99705.80
2022-12-04T00:54:25.398Z,99696.60
2022-12-04T00:56:51.760Z,99694.40
2022-12-04T00:59:18.144Z,99694.00
2022-12-04T01:01:44.696Z,99690.40
2022-12-04T01:04:11.247Z,99685.20
2022-12-04T01:06:37.636Z,99685.00
2022-12-04T01:09:05.814Z,99677.20
2022-12-04T01:11:33.756Z,99673.40
2022-12-04T01:14:00.974Z,99677.80
2022-12-04T01:16:35.840Z,99684.00
2022-12-04T01:19:05.359Z,99681.20
2022-12-04T01:21:32.017Z,99684.40
2022-12-04T01:23:58.991Z,99685.60
2022-12-04T01:26:26.022Z,99685.00
2022-12-04T01:28:52.725Z,99680.00
2022-12-04T01:31:21.614Z,99670.00
2022-12-04T01:33:50.064Z,99668.40
2022-12-04T01:36:20.303Z,99661.20
2022-12-04T01:38:47.135Z,99658.40
2022-12-04T01:41:17.329Z,99661.80
2022-12-04T01:43:43.983Z,99653.20
2022-12-04T01:46:11.413Z,99653.00
2022-12-04T01:48:50.457Z,99645.40
2022-12-04T01:51:22.706Z,99653.20
2022-12-04T01:53:54.456Z,99652.80
2022-12-04T01:56:31.034Z,99656.00
2022-12-04T01:59:01.196Z,99646.20
2022-12-04T02:01:34.130Z,99645.40
2022-12-04T02:04:02.436Z,99636.80
2022-12-04T02:06:28.828Z,99637.60
2022-12-04T02:08:55.545Z,99629.60
2022-12-04T02:11:46.002Z,99621.40
2022-12-04T02:14:41.197Z,99617.60
2022-12-04T02:17:39.446Z,99609.20
2022-12-04T02:20:22.755Z,99602.80
2022-12-04T02:23:20.867Z,99609.40
2022-12-04T02:26:40.360Z,99616.80
2022-12-04T02:29:27.115Z,99618.20
2022-12-04T02:32:32.903Z,99615.20
2022-12-04T02:35:08.228Z,99635.40
2022-12-04T02:37:44.958Z,99638.60
2022-12-04T02:40:25.386Z,99641.20
2022-12-04T02:43:15.455Z,99645.60
2022-12-04T02:45:51.870Z,99645.40
2022-12-04T02:48:21.337Z,99652.00
2022-12-04T02:50:53.241Z,99650.00
2022-12-04T02:53:53.982Z,99646.40
2022-12-04T02:56:28.304Z,99636.40
2022-12-04T02:58:58.708Z,99634.40
2022-12-04T03:01:37.699Z,99642.20
2022-12-04T03:04:17.571Z,99647.00
2022-12-04T03:06:51.526Z,99642.80
2022-12-04T03:09:54.996Z,99646.40
2022-12-04T03:12:36.490Z,99640.20
2022-12-04T03:15:17.714Z,99636.60
2022-12-04T03:17:55.095Z,99633.80
2022-12-04T03:20:23.573Z,99640.00
2022-12-04T03:23:00.766Z,99642.60
2022-12-04T03:25:50.410Z,99640.00
2022-12-04T03:28:31.492Z,99631.20
2022-12-04T03:31:07.001Z,99621.40
2022-12-04T03:33:42.441Z,99628.80
2022-12-04T03:36:22.857Z,99641.00
2022-12-04T03:39:02.212Z,99632.40
2022-12-04T03:41:50.081Z,99632.60
2022-12-04T03:44:41.408Z,99636.20
2022-12-04T03:47:14.836Z,99629.60
2022-12-04T03:49:54.635Z,99626.40
2022-12-04T03:52:46.899Z,99632.00
2022-12-04T03:55:26.706Z,99632.60
2022-12-04T03:58:01.110Z,99629.00
2022-12-04T04:00:31.625Z,99631.60
2022-12-04T04:03:16.523Z,99637.60
2022-12-04T04:05:48.881Z,99645.20
2022-12-04T04:08:26.160Z,99639.60
2022-12-04T04:11:07.724Z,99636.40
2022-12-04T04:14:20.915Z,99639.80
2022-12-04T04:17:13.797Z,99637.60
2022-12-04T04:20:03.388Z,99643.00
2022-12-04T04:23:05.537Z,99647.40
2022-12-04T04:25:37.809Z,99643.40
2022-12-04T04:28:04.416Z,99651.40
2022-12-04T04:30:32.800Z,99650.80
2022-12-04T04:33:16.205Z,99650.40
2022-12-04T04:36:00.047Z,99650.00
2022-12-04T04:38:39.344Z,99650.40
2022-12-04T04:41:20.985Z,99647.20
2022-12-04T04:43:59.759Z,99648.60
2022-12-04T04:46:36.092Z,99639.80
2022-12-04T04:49:08.585Z,99633.40
2022-12-04T04:51:35.716Z,99634.60
2022-12-04T04:54:08.474Z,99632.60
2022-12-04T04:56:45.505Z,99636.00
2022-12-04T04:59:20.550Z,99633.80
2022-12-04T05:01:55.189Z,99636.60
2022-12-04T05:04:21.718Z,99640.20
2022-12-04T05:06:49.030Z,99644.00
2022-12-04T05:09:15.456Z,99642.80
2022-12-04T05:11:41.848Z,99643.20
2022-12-04T05:14:09.484Z,99640.40
2022-12-04T05:16:36.100Z,99635.60
2022-12-04T05:19:21.456Z,99634.00
2022-12-04T05:21:47.892Z,99643.40
2022-12-04T05:24:14.279Z,99644.60
2022-12-04T05:26:40.706Z,99645.80
2022-12-04T05:29:07.115Z,99646.80
2022-12-04T05:31:33.610Z,99640.00
2022-12-04T05:34:00.124Z,99639.60
2022-12-04T05:36:26.550Z,99639.20
2022-12-04T05:38:52.966Z,99642.40
2022-12-04T05:41:19.373Z,99639.80
2022-12-04T05:43:45.773Z,99645.20
2022-12-04T05:46:12.271Z,99640.40
2022-12-04T05:48:38.779Z,99638.40
2022-12-04T05:51:10.495Z,99640.80
2022-12-04T05:53:37.364Z,99648.80
2022-12-04T05:56:06.275Z,99642.40
2022-12-04T05:58:36.579Z,99641.40
2022-12-04T06:01:16.356Z,99639.40
2022-12-04T06:03:43.146Z,99626.80
2022-12-04T06:06:21.051Z,99629.80
2022-12-04T06:08:50.319Z,99630.60
2022-12-04T06:11:22.184Z,99638.60
2022-12-04T06:13:48.877Z,99636.80
2022-12-04T06:16:22.566Z,99653.60
2022-12-04T06:18:51.944Z,99657.80
2022-12-04T06:21:19.449Z,99652.80
2022-12-04T06:23:46.367Z,99650.80
2022-12-04T06:26:12.866Z,99651.60
2022-12-04T06:28:39.619Z,99650.00
2022-12-04T06:31:12.710Z,99649.00
2022-12-04T06:33:40.204Z,99655.20
2022-12-04T06:36:12.676Z,99658.60
2022-12-04T06:38:40.371Z,99660.60
2022-12-04T06:41:10.495Z,99661.60
2022-12-04T06:43:37.467Z,99655.40
2022-12-04T06:46:11.866Z,99645.60
2022-12-04T06:48:39.092Z,99654.80
2022-12-04T06:51:10.029Z,99662.60
2022-12-04T06:53:37.455Z,99667.00
2022-12-04T06:56:09.150Z,99667.20
2022-12-04T06:58:36.889Z,99666.80
2022-12-04T07:01:10.118Z,99669.60
2022-12-04T07:03:38.332Z,99665.00
2022-12-04T07:06:21.654Z,99661.40
2022-12-04T07:08:52.261Z,99658.80
2022-12-04T07:11:20.064Z,99665.40
2022-12-04T07:13:46.547Z,99663.80
2022-12-04T07:16:16.303Z,99661.60
2022-12-04T07:18:43.027Z,99661.60
2022-12-04T07:21:16.429Z,99655.80
2022-12-04T07:23:44.019Z,99655.60
2022-12-04T07:26:13.958Z,99654.60
2022-12-04T07:28:41.809Z,99652.40
2022-12-04T07:31:15.743Z,99653.80
2022-12-04T07:33:43.573Z,99656.20
2022-12-04T07:36:14.625Z,99655.00
2022-12-04T07:38:42.613Z,99660.40
2022-12-04T07:41:12.162Z,99656.60
2022-12-04T07:43:39.177Z,99651.80
2022-12-04T07:46:10.318Z,99649.40
2022-12-04T07:48:36.770Z,99648.00
2022-12-04T07:51:06.689Z,99653.40
2022-12-04T07:53:37.188Z,99659.40
2022-12-04T07:56:06.127Z,99662.40
2022-12-04T07:58:33.611Z,99659.60
2022-12-04T08:01:16.449Z,99658.20
2022-12-04T08:03:48.584Z,99662.80
2022-12-04T08:06:19.338Z,99659.20
2022-12-04T08:08:46.910Z,99662.00
2022-12-04T08:11:18.279Z,99667.60
2022-12-04T08:13:45.899Z,99665.40
2022-12-04T08:16:13.893Z,99674.40
2022-12-04T08:18:41.479Z,99664.00
2022-12-04T08:21:14.023Z,99664.80
2022-12-04T08:23:43.268Z,99668.20
2022-12-04T08:26:11.365Z,99670.20
2022-12-04T08:28:38.848Z,99671.80
2022-12-04T08:31:11.543Z,99671.80
2022-12-04T08:33:38.505Z,99675.20
2022-12-04T08:36:11.683Z,99669.60
2022-12-04T08:38:38.636Z,99677.20
2022-12-04T08:41:07.605Z,99677.40
2022-12-04T08:43:34.926Z,99673.80
2022-12-04T08:46:05.831Z,99677.40
2022-12-04T08:48:32.931Z,99678.60
2022-12-04T08:51:00.399Z,99678.00
2022-12-04T08:53:27.339Z,99683.80
2022-12-04T08:55:53.724Z,99681.80
2022-12-04T08:58:20.181Z,99680.00
2022-12-04T09:00:46.675Z,99677.80
2022-12-04T09:03:16.054Z,99682.40
2022-12-04T09:05:45.883Z,99684.00
2022-12-04T09:08:15.175Z,99679.60
2022-12-04T09:10:44.235Z,99682.00
2022-12-04T09:13:10.972Z,99682.80
2022-12-04T09:15:41.418Z,99678.40
2022-12-04T09:18:09.288Z,99671.40
2022-12-04T09:20:36.577Z,99667.60
2022-12-04T09:23:05.576Z,99664.00
2022-12-04T09:25:36.787Z,99660.00
2022-12-04T09:28:04.545Z,99660.80
2022-12-04T09:30:31.198Z,99656.40
2022-12-04T09:32:57.663Z,99659.80
2022-12-04T09:35:24.246Z,99662.40
2022-12-04T09:37:50.604Z,99668.20
2022-12-04T09:40:52.914Z,99674.80
2022-12-04T09:43:33.696Z,99682.20
2022-12-04T09:46:08.179Z,99681.00
2022-12-04T09:48:40.052Z,99675.80
2022-12-04T09:51:18.553Z,99669.20
2022-12-04T09:53:57.280Z,99661.20
2022-12-04T09:56:29.302Z,99656.80
2022-12-04T09:59:05.980Z,99653.60
2022-12-04T10:01:47.742Z,99650.60
2022-12-04T10:04:17.064Z,99649.40
2022-12-04T10:07:10.038Z,99645.00
2022-12-04T10:09:55.250Z,99646.40
2022-12-04T10:12:47.684Z,99639.60
2022-12-04T10:15:34.619Z,99635.60
2022-12-04T10:18:28.136Z,99632.00
2022-12-04T10:21:25.799Z,99634.20
2022-12-04T10:24:09.976Z,99630.40
2022-12-04T10:26:46.185Z,99625.80
2022-12-04T10:29:22.268Z,99623.60
2022-12-04T10:31:54.406Z,99624.40
2022-12-04T10:34:27.511Z,99621.40
2022-12-04T10:37:01.978Z,99621.60
2022-12-04T10:39:40.386Z,99621.60
2022-12-04T10:42:38.191Z,99618.20
2022-12-04T10:45:07.139Z,99612.80
2022-12-04T10:47:35.070Z,99606.20
2022-12-04T10:50:15.990Z,99601.40
2022-12-04T10:52:42.419Z,99602.80
2022-12-04T10:55:09.550Z,99613.40
2022-12-04T10:57:43.477Z,99610.80
2022-12-04T11:00:35.843Z,99619.00
2022-12-04T11:03:10.610Z,99625.00
2022-12-04T11:05:56.423Z,99624.80
2022-12-04T11:08:28.105Z,99628.60
2022-12-04T11:11:06.676Z,99624.40
2022-12-04T11:13:34.418Z,99625.20
2022-12-04T11:16:01.231Z,99621.60
2022-12-04T11:18:34.314Z,99621.80
2022-12-04T11:21:06.224Z,99623.60
2022-12-04T11:23:43.140Z,99628.00
2022-12-04T11:26:10.765Z,99632.00
2022-12-04T11:28:42.479Z,99630.00
2022-12-04T11:31:17.767Z,99629.60
2022-12-04T11:33:54.543Z,99624.80
2022-12-04T11:36:24.664Z,99621.20
2022-12-04T11:39:03.458Z,99617.60
2022-12-04T11:41:32.375Z,99618.60
2022-12-04T11:44:00.846Z,99621.60
2022-12-04T11:46:34.174Z,99621.80
2022-12-04T11:49:02.844Z,99621.40
2022-12-04T11:51:55.596Z,99625.40
2022-12-04T11:55:09.544Z,99623.00
2022-12-04T11:58:09.609Z,99616.60
2022-12-04T12:00:50.945Z,99613.00
2022-12-04T12:03:44.957Z,99615.80
2022-12-04T12:06:34.303Z,99618.00
2022-12-04T12:09:25.899Z,99620.80
2022-12-04T12:12:04.771Z,99620.00
2022-12-04T12:15:04.666Z,99616.60
2022-12-04T12:17:50.750Z,99620.80
2022-12-04T12:20:42.366Z,99620.80
2022-12-04T12:23:49.370Z,99622.60
2022-12-04T12:26:18.616Z,99614.40
2022-12-04T12:32:13.743Z,99610.60
2022-12-04T12:34:44.291Z,99619.20
2022-12-04T12:37:22.457Z,99622.40
2022-12-04T12:40:06.199Z,99626.00
2022-12-04T12:43:07.536Z,99624.80
2022-12-04T12:45:44.723Z,99625.00
2022-12-04T12:48:45.163Z,99618.60
2022-12-04T12:51:32.961Z,99624.60
2022-12-04T12:54:43.370Z,99617.00
2022-12-04T12:57:38.570Z,99618.60
2022-12-04T13:00:17.204Z,99620.60
2022-12-04T13:03:00.105Z,99618.80
2022-12-04T13:05:43.159Z,99618.40
2022-12-04T13:08:32.997Z,99622.80
2022-12-04T13:11:12.422Z,99621.40
2022-12-04T13:13:54.517Z,99624.80
2022-12-04T13:16:31.266Z,99622.00
2022-12-04T13:19:15.540Z,99616.80
2022-12-04T13:21:50.982Z,99605.80
2022-12-04T13:24:56.477Z,99605.80
2022-12-04T13:27:45.330Z,99602.40
2022-12-04T13:30:24.087Z,99603.40
2022-12-04T13:33:29.529Z,99601.40
2022-12-04T13:36:27.409Z,99606.80
2022-12-04T13:39:40.127Z,99608.20
2022-12-04T13:42:16.033Z,99601.80
2022-12-04T13:44:45.584Z,99600.80
2022-12-04T13:47:28.121Z,99601.20
2022-12-04T13:50:28.312Z,99608.40
2022-12-04T13:52:55.630Z,99607.80
2022-12-04T13:55:40.222Z,99608.60
2022-12-04T13:58:09.587Z,99613.40
2022-12-04T14:00:39.506Z,99613.20
2022-12-04T14:03:25.711Z,99617.40
2022-12-04T14:05:52.804Z,99621.20
2022-12-04T14:08:24.348Z,99624.60
2022-12-04T14:11:24.483Z,99619.20
2022-12-04T14:13:55.005Z,99613.00
2022-12-04T14:16:40.352Z,99609.00
2022-12-04T14:19:08.846Z,99616.80
2022-12-04T14:21:47.520Z,99614.20
2022-12-04T14:24:35.743Z,99613.60
2022-12-04T14:27:41.966Z,99617.00
2022-12-04T14:30:38.387Z,99617.00
2022-12-04T14:33:23.850Z,99614.00
2022-12-04T14:36:24.664Z,99612.20
2022-12-04T14:39:07.661Z,99612.80
2022-12-04T14:41:34.484Z,99613.20
2022-12-04T14:44:01.038Z,99613.00
2022-12-04T14:46:42.296Z,99608.00
2022-12-04T14:49:24.298Z,99613.00
2022-12-04T14:52:24.017Z,99608.00
2022-12-04T14:55:07.417Z,99611.20
2022-12-04T14:57:54.091Z,99617.40
2022-12-04T15:00:23.596Z,99620.80
2022-12-04T15:02:57.839Z,99619.80
2022-12-04T15:05:31.198Z,99623.00
2022-12-04T15:08:04.274Z,99622.40
2022-12-04T15:10:52.910Z,99622.60
2022-12-04T15:13:31.494Z,99617.40
2022-12-04T15:16:04.267Z,99625.20
2022-12-04T15:18:33.229Z,99624.00
2022-12-04T15:21:05.079Z,99620.60
2022-12-04T15:23:40.375Z,99624.80
2022-12-04T15:26:16.193Z,99625.00
2022-12-04T15:28:53.307Z,99628.20
2022-12-04T15:31:27.860Z,99627.00
2022-12-04T15:34:02.482Z,99620.00
2022-12-04T15:36:44.275Z,99622.00
2022-12-04T15:39:20.180Z,99618.40
2022-12-04T15:41:47.702Z,99612.80
2022-12-04T15:44:33.434Z,99609.20
2022-12-04T15:47:19.478Z,99608.60
2022-12-04T15:49:46.127Z,99615.00
2022-12-04T15:52:19.754Z,99615.60
2022-12-04T15:55:15.723Z,99619.80
2022-12-04T15:57:50.047Z,99618.80
2022-12-04T16:00:27.167Z,99617.40
2022-12-04T16:02:54.584Z,99616.80
2022-12-04T16:05:20.904Z,99624.20
2022-12-04T16:07:54.435Z,99617.20
2022-12-04T16:10:27.635Z,99612.00
2022-12-04T16:12:58.301Z,99607.20
2022-12-04T16:15:33.987Z,99610.20
2022-12-04T16:18:00.392Z,99601.20
2022-12-04T16:20:26.776Z,99599.60
2022-12-04T16:22:54.712Z,99601.00
2022-12-04T16:25:21.251Z,99594.80
2022-12-04T16:27:47.654Z,99593.60
2022-12-04T16:30:14.592Z,99603.00
2022-12-04T16:32:41.067Z,99596.20
2022-12-04T16:35:17.582Z,99608.80
2022-12-04T16:37:44.339Z,99603.00
2022-12-04T16:40:13.234Z,99601.00
2022-12-04T16:42:40.649Z,99602.40
2022-12-04T16:45:32.208Z,99614.20
2022-12-04T16:47:59.096Z,99615.40
2022-12-04T16:50:27.700Z,99612.00
2022-12-04T16:52:54.614Z,99612.20
2022-12-04T16:55:48.427Z,99616.00
2022-12-04T16:58:16.333Z,99611.80
2022-12-04T17:00:45.856Z,99612.60
2022-12-04T17:03:21.767Z,99610.20
2022-12-04T17:05:48.212Z,99611.00
2022-12-04T17:08:14.847Z,99614.40
2022-12-04T17:10:41.412Z,99612.20
2022-12-04T17:13:07.829Z,99614.80
2022-12-04T17:15:34.680Z,99616.80
2022-12-04T17:18:04.685Z,99614.80
2022-12-04T17:20:33.722Z,99616.00
2022-12-04T17:23:00.116Z,99617.60
2022-12-04T17:25:26.598Z,99603.80
2022-12-04T17:27:52.964Z,99600.00
2022-12-04T17:30:19.730Z,99599.80
2022-12-04T17:32:47.697Z,99592.60
2022-12-04T17:35:14.051Z,99594.20
2022-12-04T17:37:40.543Z,99594.80
2022-12-04T17:40:10.553Z,99596.40
2022-12-04T17:42:36.992Z,99598.20
2022-12-04T17:45:03.913Z,99589.00
2022-12-04T17:47:30.307Z,99589.60
2022-12-04T17:49:56.722Z,99596.40
2022-12-04T17:52:23.206Z,99598.00
2022-12-04T17:54:50.368Z,99601.60
2022-12-04T17:57:18.594Z,99610.80
2022-12-04T17:59:45.561Z,99617.00
2022-12-04T18:02:13.131Z,99618.60
2022-12-04T18:04:39.695Z,99623.00
2022-12-04T18:07:06.447Z,99615.40
2022-12-04T18:09:33.207Z,99615.80
2022-12-04T18:12:01.499Z,99614.20
2022-12-04T18:14:30.181Z,99611.40
2022-12-04T18:16:58.080Z,99611.80
2022-12-04T18:19:29.774Z,99611.00
2022-12-04T18:21:57.083Z,99605.00
2022-12-04T18:24:25.582Z,99607.40
2022-12-04T18:26:52.795Z,99607.80
2022-12-04T18:29:23.926Z,99612.00
2022-12-04T18:31:51.232Z,99609.20
2022-12-04T18:34:19.407Z,99602.60
2022-12-04T18:36:46.551Z,99607.60
2022-12-04T18:39:20.498Z,99608.80
2022-12-04T18:41:47.810Z,99604.80
2022-12-04T18:44:14.653Z,99604.00
2022-12-04T18:46:42.041Z,99603.80
2022-12-04T18:49:09.866Z,99596.40
2022-12-04T18:51:48.909Z,99596.00
2022-12-04T18:54:20.961Z,99598.80
2022-12-04T18:56:47.784Z,99594.20
2022-12-04T18:59:24.480Z,99592.40
2022-12-04T19:01:53.218Z,99600.20
2022-12-04T19:04:23.820Z,99603.80
2022-12-04T19:06:54.446Z,99603.20
2022-12-04T19:09:47.238Z,99606.80
2022-12-04T19:12:12.883Z,99609.20
2022-12-04T19:14:39.825Z,99603.80
2022-12-04T19:17:06.356Z,99604.40
2022-12-04T19:19:32.954Z,99613.20
2022-12-04T19:22:01.000Z,99613.40
2022-12-04T19:24:27.506Z,99613.80
2022-12-04T19:26:54.434Z,99614.00
2022-12-04T19:29:20.862Z,99615.20
2022-12-04T19:31:47.451Z,99615.60
2022-12-04T19:34:14.008Z,99622.00
2022-12-04T19:36:41.143Z,99622.20
2022-12-04T19:39:07.674Z,99618.20
2022-12-04T19:41:35.248Z,99619.20
2022-12-04T19:44:14.608Z,99621.80
2022-12-04T19:46:48.964Z,99615.40
2022-12-04T19:49:15.630Z,99614.00
2022-12-04T19:51:42.091Z,99619.60
2022-12-04T19:54:13.231Z,99617.40
2022-12-04T19:56:40.084Z,99616.40
2022-12-04T19:59:08.375Z,99611.20
2022-12-04T20:01:35.884Z,99614.80
2022-12-04T20:04:06.655Z,99617.00
2022-12-04T20:06:51.175Z,99622.80
2022-12-04T20:09:22.129Z,99622.60
2022-12-04T20:11:49.198Z,99623.40
2022-12-04T20:14:15.674Z,99628.60
2022-12-04T20:16:42.998Z,99633.00
2022-12-04T20:19:15.464Z,99632.00
2022-12-04T20:21:43.272Z,99627.00
2022-12-04T20:24:13.675Z,99624.60
2022-12-04T20:26:42.759Z,99637.80
2022-12-04T20:29:13.948Z,99626.60
2022-12-04T20:31:44.728Z,99631.40
2022-12-04T20:34:16.153Z,99632.80
2022-12-04T20:36:47.041Z,99636.20
2022-12-04T20:39:16.396Z,99629.20
2022-12-04T20:41:43.519Z,99630.00
2022-12-04T20:44:15.871Z,99628.40
2022-12-04T20:46:42.844Z,99617.60
2022-12-04T20:49:20.749Z,99617.80
2022-12-04T20:51:48.166Z,99617.60
2022-12-04T20:54:20.152Z,99613.80
2022-12-04T20:56:49.119Z,99616.20
2022-12-04T20:59:18.509Z,99617.60
2022-12-04T21:01:45.654Z,99610.80
2022-12-04T21:04:13.042Z,99610.00
2022-12-04T21:06:41.563Z,99607.80
2022-12-04T21:09:21.703Z,99609.00
2022-12-04T21:11:52.926Z,99611.00
2022-12-04T21:14:45.798Z,99611.80
2022-12-04T21:17:18.796Z,99615.40
2022-12-04T21:19:47.846Z,99615.80
2022-12-04T21:22:16.228Z,99615.80
2022-12-04T21:24:43.078Z,99614.80
2022-12-04T21:27:12.419Z,99607.80
2022-12-04T21:29:43.125Z,99608.80
2022-12-04T21:32:09.502Z,99612.20
2022-12-04T21:34:35.924Z,99614.40
2022-12-04T21:37:02.365Z,99617.60
2022-12-04T21:39:28.861Z,99614.40
2022-12-04T21:42:13.820Z,99610.80
2022-12-04T21:44:40.407Z,99607.60
2022-12-04T21:47:06.846Z,99599.40
2022-12-04T21:49:33.272Z,99601.00
2022-12-04T21:51:59.779Z,99601.60
2022-12-04T21:54:28.115Z,99604.00
2022-12-04T21:56:55.864Z,99590.20
2022-12-04T21:59:24.518Z,99592.20
2022-12-04T22:01:51.777Z,99603.20
2022-12-04T22:04:18.310Z,99606.80
2022-12-04T22:06:44.756Z,99607.60
2022-12-04T22:09:12.376Z,99601.80
2022-12-04T22:11:41.525Z,99603.40
2022-12-04T22:14:09.076Z,99613.20
2022-12-04T22:16:41.568Z,99604.80
2022-12-04T22:19:09.086Z,99607.40
2022-12-04T22:21:35.565Z,99609.20
2022-12-04T22:24:04.334Z,99601.20
2022-12-04T22:26:31.741Z,99589.00
2022-12-04T22:28:58.663Z,99583.60
2022-12-04T22:31:28.774Z,99586.20
2022-12-04T22:34:00.212Z,99588.20
2022-12-04T22:36:32.729Z,99591.40
2022-12-04T22:39:09.480Z,99594.60
2022-12-04T22:41:37.162Z,99593.40
2022-12-04T22:44:03.956Z,99590.80
2022-12-04T22:46:30.480Z,99587.60
2022-12-04T22:48:58.889Z,99582.40
2022-12-04T22:51:25.398Z,99579.20
2022-12-04T22:53:55.367Z,99575.60
2022-12-04T22:56:31.172Z,99574.80
2022-12-04T22:58:59.687Z,99566.60
2022-12-04T23:01:30.694Z,99570.00
2022-12-04T23:03:58.735Z,99571.20
2022-12-04T23:06:28.659Z,99577.00
2022-12-04T23:09:02.328Z,99570.80
2022-12-04T23:11:29.495Z,99567.40
2022-12-04T23:14:01.227Z,99573.00
2022-12-04T23:16:31.325Z,99576.60
2022-12-04T23:18:59.312Z,99578.60
2022-12-04T23:21:26.546Z,99577.40
2022-12-04T23:23:54.742Z,99578.20
2022-12-04T23:26:26.040Z,99580.80
2022-12-04T23:28:53.009Z,99579.20
2022-12-04T23:31:19.639Z,99577.00
2022-12-04T23:33:46.959Z,99570.00
2022-12-04T23:36:14.766Z,99557.80
2022-12-04T23:38:43.163Z,99562.80
2022-12-04T23:41:22.695Z,99563.00
2022-12-04T23:43:51.106Z,99565.00
2022-12-04T23:46:24.836Z,99568.40
2022-12-04T23:48:51.298Z,99560.80
2022-12-04T23:51:19.955Z,99557.20
2022-12-04T23:53:47.316Z,99562.40
2022-12-04T23:56:18.654Z,99557.20
2022-12-04T23:58:47.512Z,99548.60
